createdAt,value
2018-12-05T00:01:51.929Z,25.20
2018-12-05T00:04:20.460Z,20.07
2018-12-05T00:06:48.981Z,20.77
2018-12-05T00:09:17.545Z,24.30
2018-12-05T00:11:46.674Z,23.70
2018-12-05T00:14:15.155Z,23.37
2018-12-05T00:16:44.452Z,18.80
2018-12-05T00:19:12.958Z,9.40
2018-12-05T00:21:41.624Z,20.97
2018-12-05T00:24:10.969Z,12.30
2018-12-05T00:26:39.501Z,13.07
2018-12-05T00:29:08.116Z,16.47
2018-12-05T00:31:36.560Z,15.33
2018-12-05T00:34:05.396Z,17.67
2018-12-05T00:36:34.525Z,25.03
2018-12-05T00:39:04.563Z,24.47
2018-12-05T00:41:33.140Z,30.57
2018-12-05T00:44:01.823Z,39.07
2018-12-05T00:46:30.717Z,39.87
2018-12-05T00:48:59.209Z,37.20
2018-12-05T00:51:27.855Z,90.30
2018-12-05T00:53:56.382Z,76.80
2018-12-05T00:56:24.837Z,75.63
2018-12-05T00:59:00.044Z,163.77
2018-12-05T01:01:28.995Z,131.93
2018-12-05T01:03:57.466Z,126.30
2018-12-05T01:06:25.944Z,169.03
2018-12-05T01:08:54.358Z,243.63
2018-12-05T01:11:22.781Z,297.07
2018-12-05T01:13:51.565Z,204.77
2018-12-05T01:16:20.225Z,197.60
2018-12-05T01:18:49.064Z,139.20
2018-12-05T01:21:17.525Z,180.07
2018-12-05T01:23:46.677Z,160.80
2018-12-05T01:26:15.184Z,36.13
2018-12-05T01:28:44.502Z,29.03
2018-12-05T01:31:12.987Z,63.40
2018-12-05T01:33:42.442Z,120.20
2018-12-05T01:36:10.939Z,86.80
2018-12-05T01:38:39.391Z,145.07
2018-12-05T01:41:08.094Z,136.33
2018-12-05T01:43:41.851Z,150.00
2018-12-05T01:46:10.448Z,109.13
2018-12-05T01:48:38.900Z,34.47
2018-12-05T01:51:07.830Z,20.30
2018-12-05T01:53:36.388Z,49.30
2018-12-05T01:56:05.374Z,36.40
2018-12-05T01:58:34.635Z,168.80
2018-12-05T02:01:03.477Z,71.63
2018-12-05T02:03:32.041Z,112.37
2018-12-05T02:06:01.291Z,146.33
2018-12-05T02:08:30.264Z,178.03
2018-12-05T02:10:58.882Z,141.00
2018-12-05T02:13:27.738Z,177.67
2018-12-05T02:15:56.424Z,210.90
2018-12-05T02:18:24.882Z,231.63
2018-12-05T02:20:53.719Z,396.60
2018-12-05T02:23:22.795Z,282.47
2018-12-05T02:25:51.303Z,307.87
2018-12-05T02:28:20.026Z,439.20
2018-12-05T02:30:48.636Z,424.50
2018-12-05T02:33:17.175Z,339.67
2018-12-05T02:35:46.099Z,363.33
2018-12-05T02:38:14.559Z,115.80
2018-12-05T02:40:43.007Z,72.63
2018-12-05T02:43:12.123Z,20.37
2018-12-05T02:45:40.616Z,32.47
2018-12-05T02:48:09.227Z,455.77
2018-12-05T02:50:38.125Z,369.20
2018-12-05T02:53:06.804Z,550.67
2018-12-05T02:55:35.975Z,298.23
2018-12-05T02:58:05.104Z,513.30
2018-12-05T03:00:34.488Z,561.00
2018-12-05T03:03:02.931Z,378.50
2018-12-05T03:05:31.850Z,489.30
2018-12-05T03:08:01.072Z,445.60
2018-12-05T03:10:30.341Z,473.07
2018-12-05T03:12:58.891Z,603.37
2018-12-05T03:15:27.339Z,418.93
2018-12-05T03:17:56.860Z,533.17
2018-12-05T03:20:26.147Z,676.07
2018-12-05T03:22:55.373Z,359.57
2018-12-05T03:25:24.497Z,254.73
2018-12-05T03:27:53.449Z,177.37
2018-12-05T03:30:22.705Z,274.70
2018-12-05T03:32:51.214Z,95.10
2018-12-05T03:35:23.864Z,39.87
2018-12-05T03:37:52.952Z,111.37
2018-12-05T03:40:21.848Z,39.37
2018-12-05T03:42:50.435Z,15.93
2018-12-05T03:45:18.888Z,32.17
2018-12-05T03:47:47.329Z,19.43
2018-12-05T03:50:16.345Z,20.97
2018-12-05T03:52:45.933Z,50.77
2018-12-05T03:55:15.449Z,58.77
2018-12-05T03:57:45.540Z,47.13
2018-12-05T04:00:14.884Z,18.43
2018-12-05T04:02:44.047Z,14.73
2018-12-05T04:05:12.763Z,16.10
2018-12-05T04:07:41.283Z,18.30
2018-12-05T04:10:10.341Z,15.23
2018-12-05T04:12:40.779Z,40.07
2018-12-05T04:15:10.282Z,53.93
2018-12-05T04:17:39.369Z,46.63
2018-12-05T04:20:08.639Z,19.80
2018-12-05T04:22:37.216Z,18.80
2018-12-05T04:25:05.952Z,12.93
2018-12-05T04:27:34.549Z,11.37
2018-12-05T04:30:03.460Z,21.67
2018-12-05T04:32:31.979Z,12.73
2018-12-05T04:35:00.597Z,16.53
2018-12-05T04:37:29.176Z,18.57
2018-12-05T04:39:57.674Z,23.77
2018-12-05T04:42:26.668Z,24.63
2018-12-05T04:44:55.127Z,28.00
2018-12-05T04:47:24.261Z,24.70
2018-12-05T04:49:52.824Z,25.47
2018-12-05T04:52:21.408Z,24.13
2018-12-05T04:54:49.894Z,22.53
2018-12-05T04:57:19.272Z,14.50
2018-12-05T04:59:48.436Z,24.63
2018-12-05T05:02:16.911Z,23.50
2018-12-05T05:04:45.609Z,12.30
2018-12-05T05:07:14.468Z,13.40
2018-12-05T05:09:43.047Z,11.80
2018-12-05T05:12:12.345Z,19.37
2018-12-05T05:14:41.143Z,22.37
2018-12-05T05:17:10.801Z,25.67
2018-12-05T05:19:39.282Z,27.00
2018-12-05T05:22:08.058Z,23.57
2018-12-05T05:24:36.747Z,21.30
2018-12-05T05:27:05.734Z,24.67
2018-12-05T05:29:34.508Z,24.33
2018-12-05T05:32:03.315Z,23.83
2018-12-05T05:34:31.769Z,23.03
2018-12-05T05:37:00.648Z,20.53
2018-12-05T05:39:29.180Z,14.03
2018-12-05T05:41:58.325Z,14.03
2018-12-05T05:44:27.353Z,12.23
2018-12-05T05:46:56.022Z,21.03
2018-12-05T05:49:24.713Z,23.00
2018-12-05T05:51:53.936Z,21.53
2018-12-05T05:54:23.371Z,27.07
2018-12-05T05:56:51.888Z,21.47
2018-12-05T05:59:20.426Z,22.47
2018-12-05T06:01:48.910Z,27.03
2018-12-05T06:04:18.035Z,17.80
2018-12-05T06:06:47.365Z,23.83
2018-12-05T06:09:18.055Z,24.23
2018-12-05T06:11:47.072Z,27.30
2018-12-05T06:14:15.788Z,22.53
2018-12-05T06:16:44.928Z,27.50
2018-12-05T06:19:13.360Z,22.80
2018-12-05T06:21:41.982Z,19.97
2018-12-05T06:24:11.173Z,23.20
2018-12-05T06:26:39.747Z,25.80
2018-12-05T06:29:08.195Z,26.63
2018-12-05T06:31:36.820Z,24.93
2018-12-05T06:34:05.497Z,24.60
2018-12-05T06:36:34.539Z,24.47
2018-12-05T06:39:04.400Z,24.20
2018-12-05T06:41:32.968Z,24.83
2018-12-05T06:44:01.652Z,25.77
2018-12-05T06:46:30.195Z,25.00
2018-12-05T06:48:58.885Z,20.17
2018-12-05T06:51:27.638Z,24.90
2018-12-05T06:53:57.050Z,20.03
2018-12-05T06:56:26.011Z,21.93
2018-12-05T06:58:55.611Z,20.27
2018-12-05T07:01:24.087Z,20.40
2018-12-05T07:03:53.873Z,21.50
2018-12-05T07:06:22.531Z,25.57
2018-12-05T07:08:51.087Z,20.63
2018-12-05T07:11:20.392Z,23.10
2018-12-05T07:13:48.853Z,21.47
2018-12-05T07:16:17.403Z,25.67
2018-12-05T07:18:45.961Z,20.77
2018-12-05T07:21:14.959Z,19.33
2018-12-05T07:23:43.592Z,18.13
2018-12-05T07:26:18.891Z,22.20
2018-12-05T07:28:47.358Z,13.57
2018-12-05T07:31:16.102Z,16.50
2018-12-05T07:33:45.409Z,18.33
2018-12-05T07:36:13.872Z,14.53
2018-12-05T07:38:42.630Z,18.57
2018-12-05T07:41:11.243Z,14.70
2018-12-05T07:43:40.005Z,20.57
2018-12-05T07:46:08.698Z,18.45
2018-12-05T07:48:37.776Z,15.17
2018-12-05T07:51:06.406Z,10.33
2018-12-05T07:53:35.142Z,16.00
2018-12-05T07:56:03.795Z,19.17
2018-12-05T07:58:32.681Z,16.53
2018-12-05T08:01:01.154Z,18.87
2018-12-05T08:03:29.750Z,12.47
2018-12-05T08:05:59.004Z,19.97
2018-12-05T08:08:27.563Z,19.53
2018-12-05T08:10:56.837Z,23.73
2018-12-05T08:13:25.411Z,24.00
2018-12-05T08:15:54.363Z,20.13
2018-12-05T08:18:22.812Z,20.63
2018-12-05T08:20:58.322Z,22.73
2018-12-05T08:23:26.892Z,18.93
2018-12-05T08:25:55.958Z,22.63
2018-12-05T08:28:24.443Z,18.13
2018-12-05T08:30:53.518Z,19.43
2018-12-05T08:33:22.462Z,20.10
2018-12-05T08:35:51.012Z,20.67
2018-12-05T08:38:19.647Z,20.30
2018-12-05T08:40:48.121Z,23.70
2018-12-05T08:43:16.836Z,22.20
2018-12-05T08:45:45.378Z,20.77
2018-12-05T08:48:14.133Z,26.13
2018-12-05T08:50:42.615Z,22.67
2018-12-05T08:53:11.771Z,23.37
2018-12-05T08:55:40.539Z,25.83
2018-12-05T08:58:09.132Z,25.83
2018-12-05T09:00:39.377Z,19.73
2018-12-05T09:03:08.587Z,22.57
2018-12-05T09:05:37.174Z,23.27
2018-12-05T09:08:05.833Z,21.37
2018-12-05T09:10:34.290Z,21.90
2018-12-05T09:13:03.631Z,21.83
2018-12-05T09:15:32.859Z,22.33
2018-12-05T09:18:01.333Z,15.57
2018-12-05T09:20:29.831Z,21.83
2018-12-05T09:22:58.346Z,17.73
2018-12-05T09:25:27.191Z,21.30
2018-12-05T09:27:55.982Z,24.47
2018-12-05T09:30:24.624Z,19.70
2018-12-05T09:32:53.332Z,21.33
2018-12-05T09:35:21.984Z,16.77
2018-12-05T09:37:50.507Z,22.03
2018-12-05T09:40:19.084Z,20.23
2018-12-05T09:42:47.597Z,16.47
2018-12-05T09:45:16.470Z,22.13
2018-12-05T09:47:45.139Z,17.17
2018-12-05T09:50:13.641Z,11.50
2018-12-05T09:52:42.846Z,13.90
2018-12-05T09:55:11.398Z,18.87
2018-12-05T09:57:40.579Z,16.63
2018-12-05T10:00:10.929Z,22.03
2018-12-05T10:02:39.481Z,21.87
2018-12-05T10:05:08.942Z,15.40
2018-12-05T10:07:37.544Z,17.07
2018-12-05T10:10:07.955Z,17.73
2018-12-05T10:12:36.616Z,16.97
2018-12-05T10:15:06.512Z,12.83
2018-12-05T10:17:35.020Z,23.93
2018-12-05T10:20:04.859Z,22.20
2018-12-05T10:22:33.783Z,22.33
2018-12-05T10:25:02.559Z,18.27
2018-12-05T10:27:30.984Z,20.63
2018-12-05T10:29:59.514Z,21.00
2018-12-05T10:32:27.944Z,14.17
2018-12-05T10:34:56.399Z,17.43
2018-12-05T10:37:25.254Z,23.90
2018-12-05T10:39:53.799Z,17.07
2018-12-05T10:42:23.936Z,22.47
2018-12-05T10:44:52.653Z,19.87
2018-12-05T10:47:21.339Z,23.00
2018-12-05T10:49:49.828Z,25.30
2018-12-05T10:52:18.352Z,21.50
2018-12-05T10:54:46.984Z,18.20
2018-12-05T10:57:16.418Z,20.47
2018-12-05T10:59:45.276Z,21.93
2018-12-05T11:02:19.228Z,21.07
2018-12-05T11:04:59.645Z,24.50
2018-12-05T11:07:33.875Z,22.57
2018-12-05T11:10:07.949Z,23.17
2018-12-05T11:12:41.849Z,21.67
2018-12-05T11:15:15.901Z,20.90
2018-12-05T11:17:49.739Z,22.13
2018-12-05T11:20:24.007Z,18.83
2018-12-05T11:22:58.058Z,15.60
2018-12-05T11:25:26.855Z,22.37
2018-12-05T11:27:55.658Z,24.30
2018-12-05T11:30:24.816Z,21.77
2018-12-05T11:32:53.730Z,23.83
2018-12-05T11:35:22.283Z,21.20
2018-12-05T11:37:51.024Z,23.17
2018-12-05T11:40:19.676Z,21.87
2018-12-05T11:42:48.943Z,22.43
2018-12-05T11:45:18.287Z,20.53
2018-12-05T11:47:46.986Z,17.20
2018-12-05T11:50:15.614Z,21.10
2018-12-05T11:52:44.228Z,20.27
2018-12-05T11:55:13.466Z,21.43
2018-12-05T11:57:42.036Z,19.53
2018-12-05T12:00:10.641Z,21.57
2018-12-05T12:02:39.790Z,21.90
2018-12-05T12:05:08.367Z,21.70
2018-12-05T12:07:37.330Z,22.63
2018-12-05T12:10:06.356Z,20.63
2018-12-05T12:12:40.787Z,17.23
2018-12-05T12:15:09.916Z,21.53
2018-12-05T12:17:39.043Z,19.13
2018-12-05T12:20:07.916Z,21.93
2018-12-05T12:22:36.605Z,20.07
2018-12-05T12:25:05.559Z,21.73
2018-12-05T12:27:34.421Z,19.63
2018-12-05T12:30:03.229Z,21.93
2018-12-05T12:32:32.057Z,19.47
2018-12-05T12:35:01.356Z,15.50
2018-12-05T12:37:29.880Z,19.43
2018-12-05T12:39:58.436Z,17.67
2018-12-05T12:42:27.375Z,17.63
2018-12-05T12:44:57.545Z,16.03
2018-12-05T12:47:27.281Z,19.20
2018-12-05T12:49:55.872Z,18.73
2018-12-05T12:52:24.464Z,18.67
2018-12-05T12:54:53.014Z,19.30
2018-12-05T12:57:21.723Z,14.77
2018-12-05T12:59:50.799Z,15.20
2018-12-05T13:02:20.171Z,20.27
2018-12-05T13:04:49.051Z,17.83
2018-12-05T13:07:17.628Z,18.43
2018-12-05T13:09:46.604Z,18.80
2018-12-05T13:12:19.436Z,17.10
2018-12-05T13:14:48.295Z,16.97
2018-12-05T13:17:17.541Z,18.70
2018-12-05T13:19:46.033Z,13.80
2018-12-05T13:22:14.753Z,17.80
2018-12-05T13:24:43.364Z,17.37
2018-12-05T13:27:12.053Z,15.23
2018-12-05T13:29:40.755Z,17.83
2018-12-05T13:32:09.382Z,15.73
2018-12-05T13:34:37.987Z,12.10
2018-12-05T13:37:06.844Z,13.20
2018-12-05T13:39:35.384Z,17.97
2018-12-05T13:42:04.190Z,11.67
2018-12-05T13:44:33.165Z,9.63
2018-12-05T13:47:02.274Z,14.93
2018-12-05T13:49:31.637Z,13.37
2018-12-05T13:52:00.291Z,17.57
2018-12-05T13:54:29.860Z,16.80
2018-12-05T13:56:58.454Z,17.57
2018-12-05T13:59:27.390Z,12.73
2018-12-05T14:02:01.439Z,12.53
2018-12-05T14:04:30.022Z,10.37
2018-12-05T14:06:59.006Z,11.17
2018-12-05T14:09:27.456Z,10.00
2018-12-05T14:11:56.141Z,13.70
2018-12-05T14:14:24.746Z,9.27
2018-12-05T14:16:53.844Z,9.90
2018-12-05T14:19:22.369Z,8.97
2018-12-05T14:21:50.986Z,8.37
2018-12-05T14:24:19.579Z,7.30
2018-12-05T14:26:48.166Z,7.37
2018-12-05T14:29:16.603Z,7.57
2018-12-05T14:31:45.465Z,9.83
2018-12-05T14:34:14.663Z,8.87
2018-12-05T14:36:43.166Z,10.47
2018-12-05T14:39:12.195Z,10.80
2018-12-05T14:41:40.836Z,14.50
2018-12-05T14:44:09.471Z,13.63
2018-12-05T14:46:38.054Z,14.43
2018-12-05T14:49:06.751Z,15.83
2018-12-05T14:51:35.266Z,14.03
2018-12-05T14:54:04.000Z,15.23
2018-12-05T14:56:33.082Z,9.73
2018-12-05T14:59:01.770Z,13.57
2018-12-05T15:01:30.360Z,15.60
2018-12-05T15:03:59.409Z,13.37
2018-12-05T15:06:27.872Z,13.67
2018-12-05T15:08:56.500Z,18.33
2018-12-05T15:11:25.115Z,12.43
2018-12-05T15:13:53.622Z,14.27
2018-12-05T15:16:22.185Z,15.70
2018-12-05T15:18:51.610Z,12.23
2018-12-05T15:21:20.663Z,12.23
2018-12-05T15:23:49.271Z,17.43
2018-12-05T15:26:18.994Z,15.60
2018-12-05T15:28:47.984Z,15.87
2018-12-05T15:31:16.585Z,15.17
2018-12-05T15:33:45.163Z,14.23
2018-12-05T15:36:13.732Z,17.10
2018-12-05T15:38:42.296Z,13.17
2018-12-05T15:41:10.600Z,15.03
2018-12-05T15:43:39.114Z,17.27
2018-12-05T15:46:07.999Z,14.47
2018-12-05T15:48:37.199Z,12.83
2018-12-05T15:51:05.778Z,12.63
2018-12-05T15:53:35.128Z,15.53
2018-12-05T15:56:03.849Z,12.80
2018-12-05T15:58:32.901Z,12.63
2018-12-05T16:01:01.469Z,11.13
2018-12-05T16:03:30.969Z,12.83
2018-12-05T16:05:59.714Z,13.10
2018-12-05T16:08:28.406Z,14.23
2018-12-05T16:10:57.019Z,12.20
2018-12-05T16:13:25.739Z,14.63
2018-12-05T16:15:55.177Z,13.30
2018-12-05T16:18:23.616Z,15.57
2018-12-05T16:20:52.262Z,12.97
2018-12-05T16:23:20.876Z,14.77
2018-12-05T16:25:49.982Z,7.60
2018-12-05T16:28:18.736Z,8.93
2018-12-05T16:30:47.532Z,13.57
2018-12-05T16:33:16.880Z,10.10
2018-12-05T16:35:45.579Z,10.20
2018-12-05T16:38:14.246Z,11.40
2018-12-05T16:40:43.547Z,12.10
2018-12-05T16:43:12.829Z,8.47
2018-12-05T16:45:41.553Z,8.37
2018-12-05T16:48:10.077Z,15.00
2018-12-05T16:50:38.865Z,11.27
2018-12-05T16:53:07.542Z,11.70
2018-12-05T16:55:36.197Z,12.60
2018-12-05T16:58:05.047Z,12.10
2018-12-05T17:00:33.921Z,12.23
2018-12-05T17:03:05.450Z,15.00
2018-12-05T17:05:34.936Z,13.60
2018-12-05T17:08:03.541Z,16.77
2018-12-05T17:10:32.080Z,13.80
2018-12-05T17:13:01.359Z,18.47
2018-12-05T17:15:29.879Z,12.77
2018-12-05T17:17:58.875Z,14.67
2018-12-05T17:20:28.255Z,13.20
2018-12-05T17:22:59.774Z,12.73
2018-12-05T17:25:28.438Z,12.83
2018-12-05T17:27:57.872Z,14.23
2018-12-05T17:30:26.941Z,15.80
2018-12-05T17:32:55.682Z,13.87
2018-12-05T17:35:24.840Z,10.90
2018-12-05T17:37:53.601Z,9.27
2018-12-05T17:40:22.184Z,9.23
2018-12-05T17:42:50.689Z,13.87
2018-12-05T17:45:19.260Z,14.47
2018-12-05T17:47:47.767Z,12.77
2018-12-05T17:50:16.418Z,16.10
2018-12-05T17:52:44.974Z,16.80
2018-12-05T17:55:13.577Z,12.13
2018-12-05T17:57:42.157Z,13.37
2018-12-05T18:00:10.898Z,13.07
2018-12-05T18:02:39.520Z,15.33
2018-12-05T18:05:08.216Z,10.30
2018-12-05T18:07:36.919Z,16.10
2018-12-05T18:10:06.248Z,16.00
2018-12-05T18:12:35.052Z,14.93
2018-12-05T18:15:04.140Z,17.10
2018-12-05T18:17:32.805Z,13.47
2018-12-05T18:20:01.395Z,12.97
2018-12-05T18:22:30.027Z,15.40
2018-12-05T18:24:59.318Z,11.77
2018-12-05T18:27:27.901Z,13.23
2018-12-05T18:29:56.583Z,9.77
2018-12-05T18:32:25.167Z,12.83
2018-12-05T18:34:54.007Z,14.27
2018-12-05T18:37:22.766Z,10.67
2018-12-05T18:39:51.441Z,9.73
2018-12-05T18:42:20.020Z,12.07
2018-12-05T18:44:48.548Z,15.70
2018-12-05T18:47:17.165Z,14.60
2018-12-05T18:49:45.791Z,17.43
2018-12-05T18:52:14.571Z,17.00
2018-12-05T18:54:43.992Z,19.40
2018-12-05T18:57:12.695Z,15.43
2018-12-05T18:59:41.287Z,17.17
2018-12-05T19:02:09.973Z,15.13
2018-12-05T19:04:38.517Z,19.97
2018-12-05T19:07:07.048Z,16.17
2018-12-05T19:09:35.697Z,18.20
2018-12-05T19:12:04.199Z,12.70
2018-12-05T19:14:38.240Z,15.63
2018-12-05T19:17:06.963Z,10.77
2018-12-05T19:19:35.630Z,10.97
2018-12-05T19:22:04.311Z,12.20
2018-12-05T19:24:32.966Z,19.47
2018-12-05T19:27:01.504Z,12.33
2018-12-05T19:29:30.046Z,12.13
2018-12-05T19:31:58.871Z,10.93
2018-12-05T19:34:27.583Z,17.40
2018-12-05T19:36:56.144Z,17.50
2018-12-05T19:39:24.912Z,20.37
2018-12-05T19:41:53.900Z,12.63
2018-12-05T19:44:23.056Z,9.93
2018-12-05T19:46:51.836Z,12.90
2018-12-05T19:49:20.591Z,13.87
2018-12-05T19:51:49.244Z,12.20
2018-12-05T19:54:18.116Z,11.13
2018-12-05T19:56:47.548Z,14.47
2018-12-05T19:59:16.995Z,13.10
2018-12-05T20:01:46.131Z,15.13
2018-12-05T20:04:15.503Z,14.40
2018-12-05T20:06:44.094Z,16.23
2018-12-05T20:09:12.764Z,17.70
2018-12-05T20:11:41.732Z,15.00
2018-12-05T20:14:21.952Z,17.27
2018-12-05T20:16:50.977Z,15.90
2018-12-05T20:19:19.816Z,9.83
2018-12-05T20:21:49.187Z,20.30
2018-12-05T20:24:17.833Z,22.57
2018-12-05T20:26:46.736Z,18.47
2018-12-05T20:29:15.588Z,20.73
2018-12-05T20:31:44.441Z,20.47
2018-12-05T20:34:13.226Z,20.80
2018-12-05T20:36:41.838Z,23.07
2018-12-05T20:39:11.200Z,20.53
2018-12-05T20:41:39.712Z,16.67
2018-12-05T20:44:08.366Z,14.50
2018-12-05T20:46:36.928Z,18.70
2018-12-05T20:49:06.277Z,16.33
2018-12-05T20:51:34.845Z,15.60
2018-12-05T20:54:03.591Z,19.37
2018-12-05T20:56:32.540Z,18.23
2018-12-05T20:59:02.076Z,12.03
2018-12-05T21:01:31.200Z,13.47
2018-12-05T21:04:00.480Z,25.63
2018-12-05T21:06:29.255Z,12.20
2018-12-05T21:08:57.904Z,17.97
2018-12-05T21:11:27.139Z,14.80
2018-12-05T21:13:56.653Z,23.80
2018-12-05T21:16:25.566Z,22.20
2018-12-05T21:18:54.851Z,12.47
2018-12-05T21:21:23.697Z,13.87
2018-12-05T21:23:52.535Z,10.60
2018-12-05T21:26:21.099Z,13.57
2018-12-05T21:28:49.576Z,17.57
2018-12-05T21:31:18.097Z,11.10
2018-12-05T21:33:47.304Z,10.87
2018-12-05T21:36:15.894Z,18.07
2018-12-05T21:38:44.371Z,16.77
2018-12-05T21:41:13.448Z,15.37
2018-12-05T21:43:42.095Z,13.03
2018-12-05T21:46:11.361Z,21.73
2018-12-05T21:48:40.033Z,17.37
2018-12-05T21:51:09.397Z,20.77
2018-12-05T21:53:38.126Z,12.77
2018-12-05T21:56:07.264Z,11.37
2018-12-05T21:58:35.941Z,16.63
2018-12-05T22:01:04.802Z,16.07
2018-12-05T22:03:33.954Z,11.83
2018-12-05T22:06:09.111Z,16.70
2018-12-05T22:08:37.785Z,10.13
2018-12-05T22:11:07.023Z,15.87
2018-12-05T22:13:37.035Z,9.90
2018-12-05T22:16:05.879Z,15.97
2018-12-05T22:18:34.569Z,17.77
2018-12-05T22:21:03.356Z,12.43
2018-12-05T22:23:32.560Z,10.03
2018-12-05T22:26:01.157Z,11.57
2018-12-05T22:28:30.011Z,12.77
2018-12-05T22:30:59.251Z,9.97
2018-12-05T22:33:28.623Z,10.50
2018-12-05T22:35:57.289Z,9.40
2018-12-05T22:38:26.004Z,8.40
2018-12-05T22:40:55.368Z,10.13
2018-12-05T22:43:24.261Z,11.33
2018-12-05T22:45:53.183Z,21.90
2018-12-05T22:48:21.849Z,21.93
2018-12-05T22:50:51.232Z,16.37
2018-12-05T22:53:20.069Z,8.93
2018-12-05T22:55:49.819Z,19.27
2018-12-05T22:58:18.783Z,21.07
2018-12-05T23:00:51.863Z,10.10
2018-12-05T23:03:20.587Z,17.20
2018-12-05T23:05:49.403Z,12.67
2018-12-05T23:08:18.343Z,13.33
2018-12-05T23:10:47.016Z,11.53
2018-12-05T23:13:16.313Z,9.50
2018-12-05T23:15:45.525Z,6.57
2018-12-05T23:18:14.122Z,16.87
2018-12-05T23:20:43.287Z,15.03
2018-12-05T23:23:12.035Z,15.60
2018-12-05T23:25:40.928Z,14.83
2018-12-05T23:28:09.492Z,15.97
2018-12-05T23:30:39.305Z,10.17
2018-12-05T23:34:11.508Z,14.80
2018-12-05T23:36:40.148Z,12.03
2018-12-05T23:39:09.800Z,10.83
2018-12-05T23:41:38.942Z,10.47
2018-12-05T23:44:07.866Z,16.13
2018-12-05T23:46:36.484Z,14.70
2018-12-05T23:49:05.309Z,11.13
2018-12-05T23:51:34.969Z,14.20
2018-12-05T23:54:03.604Z,12.23
2018-12-05T23:56:32.443Z,14.13
2018-12-05T23:59:01.191Z,10.20
